Time;durP1;ratioP1;P1;durP2;ratioP2;P2;SDS_P1;SDS_P2;PMS_P1;PMS_P2;Temp;Humidity;BMP_temperature;BMP_pressure;BME280_temperature;BME280_humidity;BME280_pressure;Samples;Min_cycle;Max_cycle;Signal;HPM_P1;HPM_P2
2023/08/07 00:00:25;;;;;;;;;;;;;;;;;;5020803;28;19991;-69
2023/08/07 00:02:56;;;;;;;;;;;;;;;;;;5041097;28;19920;-69
2023/08/07 00:05:21;;;;;;;;;;;;;;;;;;5020718;28;19999;-69
2023/08/07 00:07:46;;;;;;;;;;;;;;;;;;5014724;28;20091;-69
2023/08/07 00:10:13;;;;;;;;;;;;;;;;;;5033738;28;20646;-69
2023/08/07 00:12:38;;;;;;;;;;;;;;;;;;5038744;28;19917;-69
2023/08/07 00:15:08;;;;;;;;;;;;;;;;;;5038602;28;20142;-69
2023/08/07 00:17:34;;;;;;;;;;;;;;;;;;5001269;28;19920;-69
2023/08/07 00:19:59;;;;;;;;;;;;;;;;;;5031223;28;19923;-69
2023/08/07 00:22:25;;;;;;;;;;;;;;;;;;5035254;28;20539;-69
2023/08/07 00:24:50;;;;;;;;;;;;;;;;;;5025914;28;19921;-69
2023/08/07 00:27:18;;;;;;;;;;;;;;;;;;5002776;28;19928;-68
2023/08/07 00:29:43;;;;;;;;;;;;;;;;;;5018981;28;19916;-69
2023/08/07 00:32:13;;;;;;;;;;;;;;;;;;5041510;28;20475;-69
2023/08/07 00:34:39;;;;;;;;;;;;;;;;;;5006369;28;19917;-69
2023/08/07 00:37:07;;;;;;;;;;;;;;;;;;5040074;28;19990;-69
2023/08/07 00:39:32;;;;;;;;;;;;;;;;;;5035006;28;20979;-67
2023/08/07 00:41:57;;;;;;;;;;;;;;;;;;5022250;28;20461;-68
2023/08/07 00:44:25;;;;;;;;;;;;;;;;;;5023107;28;19974;-69
2023/08/07 00:46:51;;;;;;;;;;;;;;;;;;5034930;28;19956;-69
2023/08/07 00:49:17;;;;;;;;;;;;;;;;;;5017374;28;20055;-69
2023/08/07 00:51:43;;;;;;;;;;;;;;;;;;5019560;28;20328;-69
2023/08/07 00:57:27;;;;;;;;;;;;;;;;;;5040851;28;19923;-69
2023/08/07 00:59:54;;;;;;;;;;;;;;;;;;5003427;28;19917;-70
2023/08/07 01:02:19;;;;;;;;;;;;;;;;;;5039602;28;20592;-69
2023/08/07 01:04:45;;;;;;;;;;;;;;;;;;5035301;28;20054;-69
2023/08/07 01:07:12;;;;;;;;;;;;;;;;;;5003668;28;20001;-68
2023/08/07 01:09:41;;;;;;;;;;;;;;;;;;5035658;28;20058;-70
2023/08/07 01:12:08;;;;;;;;;;;;;;;;;;5023224;28;20295;-69
2023/08/07 01:14:37;;;;;;;;;;;;;;;;;;5019342;28;20445;-69
2023/08/07 01:17:05;;;;;;;;;;;;;;;;;;5002775;28;19924;-69
2023/08/07 01:19:30;;;;;;;;;;;;;;;;;;5005085;28;20147;-69
2023/08/07 01:21:58;;;;;;;;;;;;;;;;;;5017172;28;20358;-69
2023/08/07 01:24:23;;;;;;;;;;;;;;;;;;5026237;28;20382;-70
2023/08/07 01:26:51;;;;;;;;;;;;;;;;;;5039644;28;19928;-68
2023/08/07 01:29:16;;;;;;;;;;;;;;;;;;5035643;28;19917;-69
2023/08/07 01:31:41;;;;;;;;;;;;;;;;;;5041382;28;19920;-69
2023/08/07 01:34:08;;;;;;;;;;;;;;;;;;5036760;28;19920;-69
2023/08/07 01:36:33;;;;;;;;;;;;;;;;;;5035695;28;20011;-69
2023/08/07 01:39:01;;;;;;;;;;;;;;;;;;5035695;28;19920;-69
2023/08/07 01:41:29;;;;;;;;;;;;;;;;;;5021962;28;19924;-70
2023/08/07 01:43:54;;;;;;;;;;;;;;;;;;5020753;28;21588;-69
2023/08/07 01:46:22;;;;;;;;;;;;;;;;;;5022016;28;19925;-68
2023/08/07 01:48:48;;;;;;;;;;;;;;;;;;5036735;28;20330;-69
2023/08/07 01:51:13;;;;;;;;;;;;;;;;;;5022204;28;19932;-70
2023/08/07 01:53:38;;;;;;;;;;;;;;;;;;5035244;28;19956;-69
2023/08/07 01:56:07;;;;;;;;;;;;;;;;;;5002419;28;19927;-69
2023/08/07 01:58:35;;;;;;;;;;;;;;;;;;5037644;28;20031;-69
2023/08/07 02:01:00;;;;;;;;;;;;;;;;;;5035101;28;19921;-68
2023/08/07 02:03:25;;;;;;;;;;;;;;;;;;5020530;28;19920;-69
2023/08/07 02:05:53;;;;;;;;;;;;;;;;;;5032133;28;19924;-69
2023/08/07 02:08:22;;;;;;;;;;;;;;;;;;5002938;28;20019;-69
2023/08/07 02:10:50;;;;;;;;;;;;;;;;;;5018323;28;19920;-69
2023/08/07 02:13:17;;;;;;;;;;;;;;;;;;5023734;28;19963;-69
2023/08/07 02:15:42;;;;;;;;;;;;;;;;;;5004856;28;20007;-68
2023/08/07 02:18:11;;;;;;;;;;;;;;;;;;5024187;28;20101;-68
2023/08/07 02:20:36;;;;;;;;;;;;;;;;;;5016627;28;20474;-69
2023/08/07 02:23:01;;;;;;;;;;;;;;;;;;5037867;28;19927;-69
2023/08/07 02:25:26;;;;;;;;;;;;;;;;;;5040415;28;19973;-68
2023/08/07 02:27:52;;;;;;;;;;;;;;;;;;5024672;28;19917;-68
2023/08/07 02:30:17;;;;;;;;;;;;;;;;;;4999470;28;19921;-69
2023/08/07 02:32:46;;;;;;;;;;;;;;;;;;5021693;28;20018;-69
2023/08/07 02:35:11;;;;;;;;;;;;;;;;;;5022075;28;20654;-69
2023/08/07 02:37:39;;;;;;;;;;;;;;;;;;5038147;28;19921;-69
2023/08/07 02:40:04;;;;;;;;;;;;;;;;;;5018551;28;19917;-70
2023/08/07 02:42:32;;;;;;;;;;;;;;;;;;5024752;28;19921;-69
2023/08/07 02:44:57;;;;;;;;;;;;;;;;;;5033526;28;20474;-70
2023/08/07 02:47:25;;;;;;;;;;;;;;;;;;5020962;28;21491;-69
2023/08/07 02:49:50;;;;;;;;;;;;;;;;;;5016690;28;19963;-68
2023/08/07 02:52:15;;;;;;;;;;;;;;;;;;5021467;28;20425;-68
2023/08/07 02:54:43;;;;;;;;;;;;;;;;;;5033068;28;19943;-72
2023/08/07 02:57:09;;;;;;;;;;;;;;;;;;5037398;28;19920;-77
2023/08/07 02:59:36;;;;;;;;;;;;;;;;;;5022007;28;20410;-75
2023/08/07 03:02:04;;;;;;;;;;;;;;;;;;5039637;28;20051;-71
2023/08/07 03:04:30;;;;;;;;;;;;;;;;;;5016879;28;19920;-71
2023/08/07 03:06:58;;;;;;;;;;;;;;;;;;5036817;28;21513;-72
2023/08/07 03:09:23;;;;;;;;;;;;;;;;;;5031799;28;19917;-70
2023/08/07 03:11:49;;;;;;;;;;;;;;;;;;5018185;28;19975;-70
2023/08/07 03:14:16;;;;;;;;;;;;;;;;;;5015606;28;20027;-70
2023/08/07 03:16:42;;;;;;;;;;;;;;;;;;5038340;28;19920;-70
2023/08/07 03:19:07;;;;;;;;;;;;;;;;;;5039803;28;20122;-72
2023/08/07 03:21:35;;;;;;;;;;;;;;;;;;5037463;28;20084;-70
2023/08/07 03:24:00;;;;;;;;;;;;;;;;;;5038285;28;20483;-67
2023/08/07 03:26:26;;;;;;;;;;;;;;;;;;5017050;28;19931;-69
2023/08/07 03:28:51;;;;;;;;;;;;;;;;;;5020104;28;20396;-68
2023/08/07 03:31:17;;;;;;;;;;;;;;;;;;5014931;28;20315;-68
2023/08/07 03:33:42;;;;;;;;;;;;;;;;;;5041070;28;20310;-69
2023/08/07 03:36:09;;;;;;;;;;;;;;;;;;5039701;28;19920;-69
2023/08/07 03:38:34;;;;;;;;;;;;;;;;;;5041629;28;19974;-69
2023/08/07 03:40:59;;;;;;;;;;;;;;;;;;5021399;28;20508;-69
2023/08/07 03:43:25;;;;;;;;;;;;;;;;;;5030325;28;19960;-69
2023/08/07 03:45:50;;;;;;;;;;;;;;;;;;5015968;28;20188;-68
2023/08/07 03:48:16;;;;;;;;;;;;;;;;;;5015296;28;19942;-68
2023/08/07 03:50:41;;;;;;;;;;;;;;;;;;5019334;28;19924;-68
2023/08/07 03:53:09;;;;;;;;;;;;;;;;;;5031415;28;19921;-70
2023/08/07 03:55:36;;;;;;;;;;;;;;;;;;5002150;28;19920;-70
2023/08/07 03:58:02;;;;;;;;;;;;;;;;;;5024275;28;19927;-68
2023/08/07 04:00:27;;;;;;;;;;;;;;;;;;5036653;28;20055;-65
2023/08/07 04:02:53;;;;;;;;;;;;;;;;;;5023848;28;19917;-68
2023/08/07 04:05:19;;;;;;;;;;;;;;;;;;5036683;28;19928;-68
2023/08/07 04:07:45;;;;;;;;;;;;;;;;;;5042889;28;19916;-68
2023/08/07 04:10:10;;;;;;;;;;;;;;;;;;5041747;28;20359;-68
2023/08/07 04:12:35;;;;;;;;;;;;;;;;;;5020712;28;19916;-68
2023/08/07 04:15:01;;;;;;;;;;;;;;;;;;5042873;28;19948;-68
2023/08/07 04:17:26;;;;;;;;;;;;;;;;;;5035851;28;20352;-69
2023/08/07 04:19:52;;;;;;;;;;;;;;;;;;5040977;28;19940;-69
2023/08/07 04:22:17;;;;;;;;;;;;;;;;;;5024367;28;19916;-69
2023/08/07 04:24:43;;;;;;;;;;;;;;;;;;5005440;28;20284;-69
2023/08/07 04:27:08;;;;;;;;;;;;;;;;;;5021339;28;20501;-68
2023/08/07 04:29:37;;;;;;;;;;;;;;;;;;5017176;28;19928;-71
2023/08/07 04:32:02;;;;;;;;;;;;;;;;;;5043327;28;19959;-70
2023/08/07 04:34:28;;;;;;;;;;;;;;;;;;5021557;28;19932;-70
2023/08/07 04:36:53;;;;;;;;;;;;;;;;;;5025704;28;19921;-70
2023/08/07 04:39:22;;;;;;;;;;;;;;;;;;5044180;28;19952;-70
2023/08/07 04:41:49;;;;;;;;;;;;;;;;;;5019217;28;20116;-70
2023/08/07 04:44:15;;;;;;;;;;;;;;;;;;5018661;28;19920;-70
2023/08/07 04:46:43;;;;;;;;;;;;;;;;;;5009324;28;20029;-69
2023/08/07 04:49:08;;;;;;;;;;;;;;;;;;5026388;28;20595;-69
2023/08/07 04:51:33;;;;;;;;;;;;;;;;;;5046302;28;19921;-68
2023/08/07 04:53:59;;;;;;;;;;;;;;;;;;5022817;28;20272;-70
2023/08/07 04:56:24;;;;;;;;;;;;;;;;;;5047580;28;19944;-68
2023/08/07 04:58:50;;;;;;;;;;;;;;;;;;5041100;28;20553;-69
2023/08/07 05:01:15;;;;;;;;;;;;;;;;;;5028609;28;19952;-71
2023/08/07 05:03:40;;;;;;;;;;;;;;;;;;5042479;28;19917;-70
2023/08/07 05:06:09;;;;;;;;;;;;;;;;;;5022945;28;20354;-70
2023/08/07 05:08:36;;;;;;;;;;;;;;;;;;5038476;28;19917;-68
2023/08/07 05:11:02;;;;;;;;;;;;;;;;;;5021156;28;19921;-69
2023/08/07 05:13:27;;;;;;;;;;;;;;;;;;5044805;28;19928;-68
2023/08/07 05:15:53;;;;;;;;;;;;;;;;;;5040023;28;19921;-69
2023/08/07 05:18:19;;;;;;;;;;;;;;;;;;5044951;28;19921;-68
2023/08/07 05:20:44;;;;;;;;;;;;;;;;;;5028330;28;19943;-68
2023/08/07 05:23:10;;;;;;;;;;;;;;;;;;5020201;28;20421;-68
2023/08/07 05:25:36;;;;;;;;;;;;;;;;;;5017202;28;19975;-68
2023/08/07 05:28:01;;;;;;;;;;;;;;;;;;5038058;28;20286;-66
2023/08/07 05:30:26;;;;;;;;;;;;;;;;;;5043389;28;19920;-66
2023/08/07 05:32:52;;;;;;;;;;;;;;;;;;5004905;28;19920;-67
2023/08/07 05:35:17;;;;;;;;;;;;;;;;;;5025730;28;19967;-66
2023/08/07 05:37:45;;;;;;;;;;;;;;;;;;5003798;28;19921;-67
2023/08/07 05:40:14;;;;;;;;;;;;;;;;;;5018884;28;20299;-67
2023/08/07 05:42:40;;;;;;;;;;;;;;;;;;5043475;28;19916;-66
2023/08/07 05:45:06;;;;;;;;;;;;;;;;;;5024539;28;19982;-67
2023/08/07 05:47:34;;;;;;;;;;;;;;;;;;5044286;28;21147;-66
2023/08/07 05:49:59;;;;;;;;;;;;;;;;;;5021109;28;20015;-66
2023/08/07 05:52:27;;;;;;;;;;;;;;;;;;5023023;28;20509;-67
2023/08/07 05:54:52;;;;;;;;;;;;;;;;;;5024408;28;19959;-66
2023/08/07 05:57:20;;;;;;;;;;;;;;;;;;5032217;28;19921;-66
2023/08/07 05:59:46;;;;;;;;;;;;;;;;;;5042530;28;19926;-65
2023/08/07 06:02:11;;;;;;;;;;;;;;;;;;5041828;28;20435;-64
2023/08/07 06:04:40;;;;;;;;;;;;;;;;;;5019621;28;19916;-66
2023/08/07 06:07:06;;;;;;;;;;;;;;;;;;5002213;28;19936;-66
2023/08/07 06:09:32;;;;;;;;;;;;;;;;;;5019543;28;19975;-66
2023/08/07 06:11:57;;;;;;;;;;;;;;;;;;5020984;28;19920;-64
2023/08/07 06:14:25;;;;;;;;;;;;;;;;;;5041311;28;19926;-64
2023/08/07 06:16:51;;;;;;;;;;;;;;;;;;5043372;28;19920;-65
2023/08/07 06:19:16;;;;;;;;;;;;;;;;;;5036489;28;20438;-65
2023/08/07 06:21:41;;;;;;;;;;;;;;;;;;5020358;28;19963;-64
2023/08/07 06:24:07;;;;;;;;;;;;;;;;;;5029576;28;20415;-64
2023/08/07 06:26:32;;;;;;;;;;;;;;;;;;5044077;28;19920;-64
2023/08/07 06:29:00;;;;;;;;;;;;;;;;;;5007921;28;19939;-64
2023/08/07 06:31:28;;;;;;;;;;;;;;;;;;5024068;28;20046;-64
2023/08/07 06:33:53;;;;;;;;;;;;;;;;;;5012463;28;19917;-63
2023/08/07 06:36:18;;;;;;;;;;;;;;;;;;5043231;28;19921;-63
2023/08/07 06:38:44;;;;;;;;;;;;;;;;;;5022920;28;20047;-64
2023/08/07 06:41:12;;;;;;;;;;;;;;;;;;5018201;28;19920;-63
2023/08/07 06:43:37;;;;;;;;;;;;;;;;;;5041711;28;20412;-64
2023/08/07 06:46:05;;;;;;;;;;;;;;;;;;5035771;28;19927;-64
2023/08/07 06:48:30;;;;;;;;;;;;;;;;;;5025284;28;19920;-64
2023/08/07 06:50:58;;;;;;;;;;;;;;;;;;5034087;28;20387;-63
2023/08/07 06:53:26;;;;;;;;;;;;;;;;;;5025257;28;19921;-63
2023/08/07 06:55:52;;;;;;;;;;;;;;;;;;5026259;28;21282;-65
2023/08/07 06:58:20;;;;;;;;;;;;;;;;;;5017655;28;20434;-63
2023/08/07 07:00:45;;;;;;;;;;;;;;;;;;5009527;28;19916;-65
2023/08/07 07:03:13;;;;;;;;;;;;;;;;;;5006597;28;20067;-68
2023/08/07 07:05:39;;;;;;;;;;;;;;;;;;5023809;28;20604;-69
2023/08/07 07:08:07;;;;;;;;;;;;;;;;;;5011381;28;19917;-68
2023/08/07 07:10:33;;;;;;;;;;;;;;;;;;5017862;28;19932;-68
2023/08/07 07:12:58;;;;;;;;;;;;;;;;;;5033814;28;20658;-68
2023/08/07 07:15:23;;;;;;;;;;;;;;;;;;5034310;28;19921;-68
2023/08/07 07:17:49;;;;;;;;;;;;;;;;;;5018186;28;19917;-67
2023/08/07 07:20:14;;;;;;;;;;;;;;;;;;5023265;28;19921;-68
2023/08/07 07:22:39;;;;;;;;;;;;;;;;;;5016601;28;19917;-67
2023/08/07 07:25:05;;;;;;;;;;;;;;;;;;5021029;28;19921;-66
2023/08/07 07:27:30;;;;;;;;;;;;;;;;;;5017495;28;20398;-70
2023/08/07 07:29:56;;;;;;;;;;;;;;;;;;5008633;28;19917;-66
2023/08/07 07:32:21;;;;;;;;;;;;;;;;;;5019600;28;19925;-66
2023/08/07 07:34:47;;;;;;;;;;;;;;;;;;5001472;28;19917;-65
2023/08/07 07:37:16;;;;;;;;;;;;;;;;;;5021700;28;19953;-66
2023/08/07 07:39:42;;;;;;;;;;;;;;;;;;5031835;28;20587;-66
2023/08/07 07:42:10;;;;;;;;;;;;;;;;;;5013942;28;19966;-65
2023/08/07 07:44:36;;;;;;;;;;;;;;;;;;4997374;28;19920;-64
2023/08/07 07:47:01;;;;;;;;;;;;;;;;;;5002902;28;20360;-66
2023/08/07 07:49:29;;;;;;;;;;;;;;;;;;5037723;28;19920;-64
2023/08/07 07:51:54;;;;;;;;;;;;;;;;;;5020553;28;21233;-65
2023/08/07 07:54:22;;;;;;;;;;;;;;;;;;5041492;28;20438;-66
2023/08/07 07:56:50;;;;;;;;;;;;;;;;;;5017241;28;19993;-68
2023/08/07 07:59:16;;;;;;;;;;;;;;;;;;5024954;28;20539;-72
2023/08/07 08:01:41;;;;;;;;;;;;;;;;;;5018855;28;20376;-67
2023/08/07 08:04:07;;;;;;;;;;;;;;;;;;5044577;28;20525;-69
2023/08/07 08:06:32;;;;;;;;;;;;;;;;;;5017810;28;20315;-68
2023/08/07 08:08:58;;;;;;;;;;;;;;;;;;5019785;28;19993;-68
2023/08/07 08:11:23;;;;;;;;;;;;;;;;;;5017165;28;19917;-67
2023/08/07 08:13:57;;;;;;;;;;;;;;;;;;5023628;28;19971;-67
2023/08/07 08:16:22;;;;;;;;;;;;;;;;;;5040427;28;20470;-67
2023/08/07 08:18:48;;;;;;;;;;;;;;;;;;5040369;28;19923;-68
2023/08/07 08:21:16;;;;;;;;;;;;;;;;;;5008050;28;19917;-67
2023/08/07 08:23:41;;;;;;;;;;;;;;;;;;5022392;28;19927;-67
2023/08/07 08:26:06;;;;;;;;;;;;;;;;;;5034764;28;19929;-66
2023/08/07 08:28:32;;;;;;;;;;;;;;;;;;5001289;28;20042;-66
2023/08/07 08:30:58;;;;;;;;;;;;;;;;;;5019434;28;20398;-66
2023/08/07 08:33:25;;;;;;;;;;;;;;;;;;5042600;28;19948;-66
2023/08/07 08:35:53;;;;;;;;;;;;;;;;;;5026840;28;20426;-64
2023/08/07 08:38:20;;;;;;;;;;;;;;;;;;5024537;28;20015;-67
2023/08/07 08:40:45;;;;;;;;;;;;;;;;;;4996786;28;19920;-64
2023/08/07 08:43:10;;;;;;;;;;;;;;;;;;5038072;28;19943;-65
2023/08/07 08:45:37;;;;;;;;;;;;;;;;;;5040498;28;19956;-67
2023/08/07 08:48:03;;;;;;;;;;;;;;;;;;5026663;28;20043;-64
2023/08/07 08:50:29;;;;;;;;;;;;;;;;;;5025818;28;19935;-65
2023/08/07 08:52:56;;;;;;;;;;;;;;;;;;5008442;28;19920;-66
2023/08/07 08:55:22;;;;;;;;;;;;;;;;;;5019021;28;19921;-64
2023/08/07 08:57:47;;;;;;;;;;;;;;;;;;5019343;28;19931;-64
2023/08/07 09:00:20;;;;;;;;;;;;;;;;;;5018154;28;20396;-62
2023/08/07 09:02:45;;;;;;;;;;;;;;;;;;5020309;28;19998;-65
2023/08/07 09:05:11;;;;;;;;;;;;;;;;;;5019505;28;20074;-65
2023/08/07 09:07:38;;;;;;;;;;;;;;;;;;4999122;28;19917;-64
2023/08/07 09:10:03;;;;;;;;;;;;;;;;;;5017695;28;20065;-63
2023/08/07 09:12:29;;;;;;;;;;;;;;;;;;5004641;28;19995;-64
2023/08/07 09:14:54;;;;;;;;;;;;;;;;;;5018345;28;21503;-65
2023/08/07 09:17:20;;;;;;;;;;;;;;;;;;5018158;28;19917;-64
2023/08/07 09:19:45;;;;;;;;;;;;;;;;;;5002519;28;19920;-64
2023/08/07 09:22:13;;;;;;;;;;;;;;;;;;5038214;28;19921;-64
2023/08/07 09:24:39;;;;;;;;;;;;;;;;;;5006500;28;19916;-64
2023/08/07 09:27:05;;;;;;;;;;;;;;;;;;5006536;28;20041;-64
2023/08/07 09:29:32;;;;;;;;;;;;;;;;;;5018606;28;20248;-64
2023/08/07 09:31:58;;;;;;;;;;;;;;;;;;5020676;28;19940;-64
2023/08/07 09:34:25;;;;;;;;;;;;;;;;;;5019778;28;20545;-65
2023/08/07 09:36:51;;;;;;;;;;;;;;;;;;5022037;28;20162;-68
2023/08/07 09:39:16;;;;;;;;;;;;;;;;;;5024334;28;19921;-66
2023/08/07 09:41:41;;;;;;;;;;;;;;;;;;5033850;28;19921;-63
2023/08/07 09:44:08;;;;;;;;;;;;;;;;;;5005604;28;20016;-65
2023/08/07 09:46:37;;;;;;;;;;;;;;;;;;5018699;28;20011;-67
2023/08/07 09:49:02;;;;;;;;;;;;;;;;;;5002915;28;19927;-65
2023/08/07 09:51:28;;;;;;;;;;;;;;;;;;5014830;28;20304;-64
2023/08/07 09:53:53;;;;;;;;;;;;;;;;;;5013215;28;19994;-67
2023/08/07 09:56:18;;;;;;;;;;;;;;;;;;5010806;28;20305;-66
2023/08/07 09:58:44;;;;;;;;;;;;;;;;;;5017868;28;20665;-65
2023/08/07 10:01:09;;;;;;;;;;;;;;;;;;5033076;28;19921;-64
2023/08/07 10:03:37;;;;;;;;;;;;;;;;;;5034120;28;19917;-65
2023/08/07 10:06:03;;;;;;;;;;;;;;;;;;5040372;28;20296;-64
2023/08/07 10:08:29;;;;;;;;;;;;;;;;;;5018752;28;19921;-65
2023/08/07 10:10:54;;;;;;;;;;;;;;;;;;5034006;28;19927;-64
2023/08/07 10:13:20;;;;;;;;;;;;;;;;;;5033365;28;19921;-66
2023/08/07 10:15:47;;;;;;;;;;;;;;;;;;5032088;28;20117;-65
2023/08/07 10:18:13;;;;;;;;;;;;;;;;;;5020238;28;19928;-66
2023/08/07 10:20:43;;;;;;;;;;;;;;;;;;5008298;28;20423;-68
2023/08/07 10:23:08;;;;;;;;;;;;;;;;;;5016146;28;20058;-67
2023/08/07 10:25:34;;;;;;;;;;;;;;;;;;5018391;28;20348;-66
2023/08/07 10:28:02;;;;;;;;;;;;;;;;;;5017919;28;19921;-66
2023/08/07 10:30:27;;;;;;;;;;;;;;;;;;5020624;28;20443;-67
2023/08/07 10:32:53;;;;;;;;;;;;;;;;;;5023704;28;19978;-65
2023/08/07 10:35:18;;;;;;;;;;;;;;;;;;5017787;28;19931;-65
2023/08/07 10:37:46;;;;;;;;;;;;;;;;;;5023789;28;20158;-65
2023/08/07 10:40:12;;;;;;;;;;;;;;;;;;5027055;28;20141;-68
2023/08/07 10:42:40;;;;;;;;;;;;;;;;;;5022181;28;19997;-67
2023/08/07 10:45:06;;;;;;;;;;;;;;;;;;5022629;28;19999;-66
2023/08/07 10:47:31;;;;;;;;;;;;;;;;;;5014419;28;20027;-66
2023/08/07 10:49:59;;;;;;;;;;;;;;;;;;5027405;28;19975;-65
2023/08/07 10:52:24;;;;;;;;;;;;;;;;;;5041641;28;20896;-67
2023/08/07 10:54:50;;;;;;;;;;;;;;;;;;5026092;28;19952;-67
2023/08/07 10:57:15;;;;;;;;;;;;;;;;;;5034702;28;20382;-67
2023/08/07 10:59:40;;;;;;;;;;;;;;;;;;5017400;28;20691;-67
2023/08/07 11:02:08;;;;;;;;;;;;;;;;;;5041481;28;20354;-66
2023/08/07 11:04:35;;;;;;;;;;;;;;;;;;5025001;28;19916;-69
2023/08/07 11:07:02;;;;;;;;;;;;;;;;;;5034654;28;19936;-67
2023/08/07 11:09:33;;;;;;;;;;;;;;;;;;5019485;28;19938;-70
2023/08/07 11:11:58;;;;;;;;;;;;;;;;;;5026306;28;20519;-64
2023/08/07 11:14:24;;;;;;;;;;;;;;;;;;5024430;28;19920;-69
2023/08/07 11:16:49;;;;;;;;;;;;;;;;;;5036949;28;19916;-67
2023/08/07 11:19:17;;;;;;;;;;;;;;;;;;5026110;28;19920;-65
2023/08/07 11:21:45;;;;;;;;;;;;;;;;;;5036381;28;19970;-66
2023/08/07 11:24:10;;;;;;;;;;;;;;;;;;5005115;28;19917;-68
2023/08/07 11:26:36;;;;;;;;;;;;;;;;;;5035270;28;20394;-70
2023/08/07 11:29:01;;;;;;;;;;;;;;;;;;5019063;28;19974;-67
2023/08/07 11:31:27;;;;;;;;;;;;;;;;;;5019370;28;19920;-68
2023/08/07 11:33:53;;;;;;;;;;;;;;;;;;5021887;28;19927;-69
2023/08/07 11:36:18;;;;;;;;;;;;;;;;;;5033274;28;20061;-70
2023/08/07 11:38:43;;;;;;;;;;;;;;;;;;5015148;28;19986;-68
2023/08/07 11:41:09;;;;;;;;;;;;;;;;;;5015267;28;20102;-67
2023/08/07 11:43:34;;;;;;;;;;;;;;;;;;5032849;28;20537;-68
2023/08/07 11:45:59;;;;;;;;;;;;;;;;;;5022982;28;20108;-69
2023/08/07 11:48:28;;;;;;;;;;;;;;;;;;5022789;28;20564;-68
2023/08/07 11:50:53;;;;;;;;;;;;;;;;;;5035195;28;20241;-68
2023/08/07 11:53:19;;;;;;;;;;;;;;;;;;5043884;28;20360;-69
2023/08/07 11:55:47;;;;;;;;;;;;;;;;;;5041133;28;19974;-67
2023/08/07 11:58:15;;;;;;;;;;;;;;;;;;5034841;28;19994;-67
2023/08/07 12:00:40;;;;;;;;;;;;;;;;;;5025538;28;19938;-66
2023/08/07 12:03:08;;;;;;;;;;;;;;;;;;5030568;28;19928;-66
2023/08/07 12:05:36;;;;;;;;;;;;;;;;;;5040146;28;21587;-66
2023/08/07 12:08:04;;;;;;;;;;;;;;;;;;5037717;28;19928;-66
2023/08/07 12:10:31;;;;;;;;;;;;;;;;;;5035239;28;19920;-67
2023/08/07 12:13:05;;;;;;;;;;;;;;;;;;5021632;28;19951;-70
2023/08/07 12:15:31;;;;;;;;;;;;;;;;;;5036194;28;20208;-67
2023/08/07 12:17:56;;;;;;;;;;;;;;;;;;5018413;28;19926;-67
2023/08/07 12:20:24;;;;;;;;;;;;;;;;;;5025344;28;20806;-66
2023/08/07 12:22:50;;;;;;;;;;;;;;;;;;5026825;28;19921;-67
2023/08/07 12:25:17;;;;;;;;;;;;;;;;;;5034180;28;19947;-68
2023/08/07 12:27:47;;;;;;;;;;;;;;;;;;5017672;28;20406;-68
2023/08/07 12:30:13;;;;;;;;;;;;;;;;;;5034432;28;19920;-67
2023/08/07 12:32:38;;;;;;;;;;;;;;;;;;5041349;28;19920;-68
2023/08/07 12:35:05;;;;;;;;;;;;;;;;;;5035877;28;19917;-66
2023/08/07 12:37:31;;;;;;;;;;;;;;;;;;5041486;28;19927;-66
2023/08/07 12:39:56;;;;;;;;;;;;;;;;;;5040836;28;20382;-67
2023/08/07 12:42:22;;;;;;;;;;;;;;;;;;5031381;28;19917;-66
2023/08/07 12:44:47;;;;;;;;;;;;;;;;;;5006278;28;19920;-67
2023/08/07 12:47:12;;;;;;;;;;;;;;;;;;5038054;28;20540;-66
2023/08/07 12:49:38;;;;;;;;;;;;;;;;;;5022181;28;20364;-64
2023/08/07 12:52:06;;;;;;;;;;;;;;;;;;5017895;28;20005;-65
2023/08/07 12:54:34;;;;;;;;;;;;;;;;;;5036057;28;19924;-67
2023/08/07 12:57:01;;;;;;;;;;;;;;;;;;5041016;28;21775;-68
2023/08/07 12:59:27;;;;;;;;;;;;;;;;;;5018877;28;20470;-64
2023/08/07 13:01:58;;;;;;;;;;;;;;;;;;5022087;28;19920;-67
2023/08/07 13:04:26;;;;;;;;;;;;;;;;;;5013598;28;19932;-67
2023/08/07 13:06:51;;;;;;;;;;;;;;;;;;5036130;28;20128;-66
2023/08/07 13:09:16;;;;;;;;;;;;;;;;;;5046102;28;20002;-66
2023/08/07 13:11:42;;;;;;;;;;;;;;;;;;5003944;28;20552;-66
2023/08/07 13:14:07;;;;;;;;;;;;;;;;;;5044114;28;19917;-70
2023/08/07 13:16:33;;;;;;;;;;;;;;;;;;5025764;28;21909;-66
2023/08/07 13:19:01;;;;;;;;;;;;;;;;;;5045860;28;22239;-66
2023/08/07 13:21:28;;;;;;;;;;;;;;;;;;5043308;28;19920;-66
2023/08/07 13:23:55;;;;;;;;;;;;;;;;;;5025955;28;19924;-68
2023/08/07 13:26:20;;;;;;;;;;;;;;;;;;5020778;28;19925;-67
2023/08/07 13:28:48;;;;;;;;;;;;;;;;;;5021239;28;19931;-67
2023/08/07 13:31:16;;;;;;;;;;;;;;;;;;5036122;28;19931;-65
2023/08/07 13:33:44;;;;;;;;;;;;;;;;;;5008013;28;19960;-67
2023/08/07 13:36:14;;;;;;;;;;;;;;;;;;5041815;28;20397;-68
2023/08/07 13:38:42;;;;;;;;;;;;;;;;;;5020424;28;19927;-65
2023/08/07 13:41:17;;;;;;;;;;;;;;;;;;;;;
2023/08/07 13:43:47;;;;;;;;;;;;;;;;;;5037370;28;20779;-67
2023/08/07 13:46:12;;;;;;;;;;;;;;;;;;5035134;28;19925;-66
2023/08/07 13:48:40;;;;;;;;;;;;;;;;;;5035324;28;20647;-65
2023/08/07 13:51:08;;;;;;;;;;;;;;;;;;5017615;28;19927;-66
2023/08/07 13:53:33;;;;;;;;;;;;;;;;;;5004973;28;20198;-66
2023/08/07 13:55:58;;;;;;;;;;;;;;;;;;5004315;28;19978;-65
2023/08/07 13:58:26;;;;;;;;;;;;;;;;;;5036358;28;19921;-66
2023/08/07 14:00:54;;;;;;;;;;;;;;;;;;5026926;28;20378;-67
2023/08/07 14:03:20;;;;;;;;;;;;;;;;;;5026416;28;19921;-66
2023/08/07 14:05:45;;;;;;;;;;;;;;;;;;5015481;28;20280;-68
2023/08/07 14:08:13;;;;;;;;;;;;;;;;;;5018580;28;20097;-65
2023/08/07 14:10:40;;;;;;;;;;;;;;;;;;5038214;28;20379;-66
2023/08/07 14:13:06;;;;;;;;;;;;;;;;;;5032431;28;19931;-65
2023/08/07 14:15:33;;;;;;;;;;;;;;;;;;5031218;28;20379;-67
2023/08/07 14:17:59;;;;;;;;;;;;;;;;;;5018911;28;19931;-69
2023/08/07 14:20:26;;;;;;;;;;;;;;;;;;5042146;28;19927;-66
2023/08/07 14:22:52;;;;;;;;;;;;;;;;;;5040401;28;20574;-69
2023/08/07 14:25:21;;;;;;;;;;;;;;;;;;5018346;28;19921;-67
2023/08/07 14:27:49;;;;;;;;;;;;;;;;;;5033385;28;19921;-67
2023/08/07 14:30:14;;;;;;;;;;;;;;;;;;5016385;28;21147;-66
2023/08/07 14:32:40;;;;;;;;;;;;;;;;;;5028106;28;19921;-68
2023/08/07 14:35:07;;;;;;;;;;;;;;;;;;5032811;28;20413;-66
2023/08/07 14:37:33;;;;;;;;;;;;;;;;;;5020369;28;20037;-67
2023/08/07 14:39:58;;;;;;;;;;;;;;;;;;5032162;28;20490;-66
2023/08/07 14:42:26;;;;;;;;;;;;;;;;;;5041946;28;21600;-65
2023/08/07 14:44:51;;;;;;;;;;;;;;;;;;5033951;28;20069;-66
2023/08/07 14:47:17;;;;;;;;;;;;;;;;;;5032913;28;19924;-65
2023/08/07 14:49:47;;;;;;;;;;;;;;;;;;5018105;28;19979;-67
2023/08/07 14:52:13;;;;;;;;;;;;;;;;;;5019940;28;19925;-68
2023/08/07 14:54:38;;;;;;;;;;;;;;;;;;5021457;28;20473;-65
2023/08/07 14:57:07;;;;;;;;;;;;;;;;;;5025099;28;19986;-67
2023/08/07 14:59:32;;;;;;;;;;;;;;;;;;5022835;28;20023;-69
2023/08/07 15:02:00;;;;;;;;;;;;;;;;;;5003552;28;19924;-66
2023/08/07 15:04:28;;;;;;;;;;;;;;;;;;5023206;28;19916;-65
2023/08/07 15:06:54;;;;;;;;;;;;;;;;;;5025837;28;19971;-68
2023/08/07 15:09:22;;;;;;;;;;;;;;;;;;5005574;28;19932;-66
2023/08/07 15:11:47;;;;;;;;;;;;;;;;;;5033132;28;19931;-63
2023/08/07 15:14:15;;;;;;;;;;;;;;;;;;5003630;28;20007;-65
2023/08/07 15:16:41;;;;;;;;;;;;;;;;;;5025861;28;19920;-65
2023/08/07 15:19:09;;;;;;;;;;;;;;;;;;5022104;28;19920;-66
2023/08/07 15:21:36;;;;;;;;;;;;;;;;;;5013712;28;19924;-69
2023/08/07 15:24:02;;;;;;;;;;;;;;;;;;5034981;28;19948;-67
2023/08/07 15:26:30;;;;;;;;;;;;;;;;;;5040298;28;20134;-67
2023/08/07 15:28:55;;;;;;;;;;;;;;;;;;5043337;28;20413;-67
2023/08/07 15:31:21;;;;;;;;;;;;;;;;;;5039996;28;20076;-65
2023/08/07 15:33:52;;;;;;;;;;;;;;;;;;5000230;28;19921;-68
2023/08/07 15:36:17;;;;;;;;;;;;;;;;;;5038662;28;19967;-67
2023/08/07 15:38:45;;;;;;;;;;;;;;;;;;5029482;28;20413;-67
2023/08/07 15:41:11;;;;;;;;;;;;;;;;;;5033829;28;19920;-68
2023/08/07 15:43:36;;;;;;;;;;;;;;;;;;5040777;28;20371;-68
2023/08/07 15:46:01;;;;;;;;;;;;;;;;;;5032383;28;20424;-69
2023/08/07 15:48:26;;;;;;;;;;;;;;;;;;5014319;28;20235;-67
2023/08/07 15:50:55;;;;;;;;;;;;;;;;;;5018923;28;19928;-66
2023/08/07 15:53:20;;;;;;;;;;;;;;;;;;5045127;28;19920;-68
2023/08/07 15:55:45;;;;;;;;;;;;;;;;;;5038267;28;20290;-67
2023/08/07 15:58:10;;;;;;;;;;;;;;;;;;5028973;28;19920;-65
2023/08/07 16:00:36;;;;;;;;;;;;;;;;;;5035994;28;20610;-66
2023/08/07 16:03:01;;;;;;;;;;;;;;;;;;5021388;28;19924;-70
2023/08/07 16:05:27;;;;;;;;;;;;;;;;;;5042004;28;20074;-65
2023/08/07 16:07:54;;;;;;;;;;;;;;;;;;5021781;28;19928;-63
2023/08/07 16:10:20;;;;;;;;;;;;;;;;;;5042698;28;21462;-65
2023/08/07 16:12:48;;;;;;;;;;;;;;;;;;5042376;28;19927;-65
2023/08/07 16:15:16;;;;;;;;;;;;;;;;;;5036389;28;20667;-64
2023/08/07 16:17:44;;;;;;;;;;;;;;;;;;5037349;28;20130;-68
2023/08/07 16:20:09;;;;;;;;;;;;;;;;;;5007759;28;19928;-66
2023/08/07 16:22:37;;;;;;;;;;;;;;;;;;5037064;28;19943;-65
2023/08/07 16:25:05;;;;;;;;;;;;;;;;;;5044691;28;19917;-67
2023/08/07 16:27:31;;;;;;;;;;;;;;;;;;5043558;28;20696;-66
2023/08/07 16:30:03;;;;;;;;;;;;;;;;;;5045061;28;19916;-68
2023/08/07 16:32:30;;;;;;;;;;;;;;;;;;5042754;28;19956;-63
2023/08/07 16:34:58;;;;;;;;;;;;;;;;;;5023785;28;20043;-67
2023/08/07 16:37:27;;;;;;;;;;;;;;;;;;5039127;28;20138;-67
2023/08/07 16:39:52;;;;;;;;;;;;;;;;;;5003578;28;20034;-69
2023/08/07 16:42:17;;;;;;;;;;;;;;;;;;5044046;28;19920;-66